Time;durP1;ratioP1;P1;durP2;ratioP2;P2;SDS_P1;SDS_P2;PMS_P1;PMS_P2;Temp;Humidity;BMP_temperature;BMP_pressure;BME280_temperature;BME280_humidity;BME280_pressure;Samples;Min_cycle;Max_cycle;Signal;HPM_P1;HPM_P2
2021/10/07 00:00:14;;;;;;;7.93;1.52;;;15.20;99.90;;;;;;5094037;28;20028;-72
2021/10/07 00:02:40;;;;;;;8.15;2.13;;;15.20;99.90;;;;;;5094020;28;20541;-72
2021/10/07 00:05:08;;;;;;;9.55;1.92;;;15.30;99.90;;;;;;5094263;28;20103;-73
2021/10/07 00:07:33;;;;;;;8.48;1.65;;;15.30;99.90;;;;;;5094498;28;20020;-72
2021/10/07 00:09:59;;;;;;;11.60;2.13;;;15.30;99.90;;;;;;5093841;28;20023;-72
2021/10/07 00:12:25;;;;;;;5.20;1.63;;;15.20;99.90;;;;;;5093483;28;20100;-72
2021/10/07 00:14:51;;;;;;;4.97;1.63;;;15.30;99.90;;;;;;5093728;28;20024;-72
2021/10/07 00:17:16;;;;;;;4.70;1.88;;;15.30;99.90;;;;;;5094298;28;20028;-72
2021/10/07 00:19:42;;;;;;;6.88;1.90;;;15.20;99.90;;;;;;5094190;28;20032;-72
2021/10/07 00:22:08;;;;;;;6.00;1.55;;;15.20;99.90;;;;;;5093721;28;20028;-72
2021/10/07 00:24:33;;;;;;;90.97;9.00;;;15.30;99.90;;;;;;5093657;28;20140;-73
2021/10/07 00:26:59;;;;;;;16.88;2.88;;;15.30;99.90;;;;;;5093639;28;20514;-72
2021/10/07 00:32:30;;;;;;;5.85;1.30;;;15.20;99.90;;;;;;5093878;28;20030;-73
2021/10/07 00:35:34;;;;;;;6.32;1.90;;;15.20;99.90;;;;;;5091266;28;20040;-72
2021/10/07 00:40:06;;;;;;;7.05;1.83;;;15.20;99.90;;;;;;5093505;28;20081;-72
2021/10/07 00:42:32;;;;;;;6.43;1.45;;;15.20;99.90;;;;;;5093468;28;20179;-72
2021/10/07 00:44:58;;;;;;;8.10;1.73;;;15.20;99.90;;;;;;5093990;28;20020;-72
2021/10/07 00:47:23;;;;;;;7.30;1.85;;;15.10;99.90;;;;;;5093423;28;20389;-72
2021/10/07 00:49:49;;;;;;;4.75;1.40;;;15.10;99.90;;;;;;5093314;28;20101;-73
2021/10/07 00:52:18;;;;;;;8.57;2.17;;;15.10;99.90;;;;;;5093608;28;20027;-72
2021/10/07 00:54:48;;;;;;;8.38;1.65;;;15.10;99.90;;;;;;5093597;28;20099;-73
2021/10/07 00:57:18;;;;;;;;;;;15.10;99.90;;;;;;5094338;28;20108;-73
2021/10/07 00:59:44;;;;;;;5.15;1.30;;;15.00;99.90;;;;;;5092040;28;19915;-72
2021/10/07 01:02:10;;;;;;;6.47;1.40;;;14.90;99.90;;;;;;5093300;28;20161;-72
2021/10/07 01:04:36;;;;;;;9.63;1.70;;;14.90;99.90;;;;;;5093213;28;20099;-73
2021/10/07 01:07:03;;;;;;;6.97;1.67;;;15.00;99.90;;;;;;5093211;28;20103;-72
2021/10/07 01:09:30;;;;;;;7.82;1.60;;;14.90;99.90;;;;;;5093040;28;20064;-72
2021/10/07 01:11:56;;;;;;;7.38;1.40;;;14.80;99.90;;;;;;5093118;28;20068;-73
2021/10/07 01:14:52;;;;;;;7.20;2.03;;;14.80;99.90;;;;;;5093176;28;20024;-72
2021/10/07 01:17:24;;;;;;;7.65;1.70;;;14.80;99.90;;;;;;5076422;28;20032;-72
2021/10/07 01:19:51;;;;;;;5.60;1.73;;;14.70;99.90;;;;;;5093043;28;20085;-72
2021/10/07 01:22:19;;;;;;;8.15;2.33;;;14.70;99.90;;;;;;5093076;28;20051;-72
2021/10/07 01:24:45;;;;;;;4.13;1.67;;;14.60;99.90;;;;;;5093232;28;20078;-72
2021/10/07 01:27:11;;;;;;;8.27;1.73;;;14.60;99.90;;;;;;5097607;28;20066;-72
2021/10/07 01:29:38;;;;;;;4.95;1.58;;;14.60;99.90;;;;;;5096913;28;20024;-72
2021/10/07 01:32:04;;;;;;;4.05;1.58;;;14.70;99.90;;;;;;5096931;28;20024;-72
2021/10/07 01:34:30;;;;;;;4.30;1.63;;;14.70;99.90;;;;;;5096913;28;20504;-72
2021/10/07 01:36:57;;;;;;;3.28;1.45;;;14.60;99.90;;;;;;5097133;28;20073;-72
2021/10/07 01:39:23;;;;;;;5.82;2.05;;;14.50;99.90;;;;;;5096776;28;20077;-72
2021/10/07 01:41:50;;;;;;;6.57;1.88;;;14.60;99.90;;;;;;5096754;28;20024;-72
2021/10/07 01:44:20;;;;;;;6.47;1.85;;;14.60;99.90;;;;;;5096950;28;20380;-72
2021/10/07 01:46:46;;;;;;;;;;;14.70;99.90;;;;;;5097100;28;20088;-72
2021/10/07 01:49:12;;;;;;;6.35;1.67;;;14.70;99.90;;;;;;5096841;28;19907;-72
2021/10/07 01:51:38;;;;;;;8.02;1.80;;;14.60;99.90;;;;;;5096569;28;20024;-72
2021/10/07 01:54:05;;;;;;;5.72;1.65;;;14.70;99.90;;;;;;5096778;28;20103;-72
2021/10/07 01:56:32;;;;;;;5.68;1.80;;;14.70;99.90;;;;;;5096512;28;20012;-72
2021/10/07 01:58:59;;;;;;;5.25;1.70;;;14.70;99.90;;;;;;5096689;28;20032;-71
2021/10/07 02:01:25;;;;;;;8.95;2.40;;;14.70;99.90;;;;;;5096675;28;20028;-72
2021/10/07 02:03:50;;;;;;;6.95;1.77;;;14.80;99.90;;;;;;5096612;28;20034;-73
2021/10/07 02:06:16;;;;;;;6.97;1.95;;;14.80;99.90;;;;;;5096847;28;20017;-72
2021/10/07 02:08:42;;;;;;;9.18;2.40;;;14.70;99.90;;;;;;5096135;28;20040;-72
2021/10/07 02:11:08;;;;;;;9.32;2.00;;;14.70;99.90;;;;;;5096163;28;20051;-72
2021/10/07 02:13:34;;;;;;;4.70;1.95;;;14.70;99.90;;;;;;5096129;28;20024;-72
2021/10/07 02:16:00;;;;;;;7.47;1.65;;;14.70;99.90;;;;;;5095848;28;20031;-72
2021/10/07 02:18:26;;;;;;;6.07;1.60;;;14.70;99.90;;;;;;5096338;28;20024;-72
2021/10/07 02:20:53;;;;;;;3.58;1.58;;;14.70;99.90;;;;;;5095972;28;20024;-72
2021/10/07 02:23:19;;;;;;;5.80;1.80;;;14.70;99.90;;;;;;5096262;28;20040;-72
2021/10/07 02:25:45;;;;;;;6.95;1.60;;;14.80;99.90;;;;;;5096196;28;20020;-72
2021/10/07 02:28:10;;;;;;;6.57;1.92;;;14.80;99.90;;;;;;5095821;28;20031;-72
2021/10/07 02:30:36;;;;;;;7.25;2.00;;;14.80;99.90;;;;;;5095863;28;20476;-72
2021/10/07 02:33:02;;;;;;;5.65;1.60;;;14.80;99.90;;;;;;5095519;28;20032;-72
2021/10/07 02:35:28;;;;;;;12.23;2.70;;;14.90;99.90;;;;;;5095755;28;20024;-72
2021/10/07 02:37:54;;;;;;;4.45;1.90;;;14.90;99.90;;;;;;5094695;28;20079;-72
2021/10/07 02:40:20;;;;;;;4.82;1.73;;;14.90;99.90;;;;;;5095907;28;20055;-73
2021/10/07 02:42:46;;;;;;;5.97;1.80;;;14.90;99.90;;;;;;5095605;28;20059;-72
2021/10/07 02:45:14;;;;;;;7.10;2.10;;;14.90;99.90;;;;;;5095560;28;20016;-72
2021/10/07 02:47:41;;;;;;;5.88;2.20;;;14.90;99.90;;;;;;5095517;28;20027;-72
2021/10/07 02:50:09;;;;;;;5.00;1.70;;;14.90;99.90;;;;;;5095681;28;20020;-72
2021/10/07 02:52:35;;;;;;;7.53;1.83;;;14.80;99.90;;;;;;5095408;28;20480;-72
2021/10/07 02:55:00;;;;;;;5.32;1.73;;;14.90;99.90;;;;;;5095382;28;20077;-72
2021/10/07 02:57:26;;;;;;;5.13;2.00;;;14.80;99.90;;;;;;5095304;28;20024;-72
2021/10/07 02:59:52;;;;;;;5.38;1.90;;;14.80;99.90;;;;;;5095244;28;20500;-72
2021/10/07 03:02:17;;;;;;;11.65;2.40;;;14.90;99.90;;;;;;5095481;28;20028;-72
2021/10/07 03:04:43;;;;;;;5.03;1.65;;;14.90;99.90;;;;;;5095463;28;20491;-73
2021/10/07 03:07:11;;;;;;;9.35;2.28;;;14.90;99.90;;;;;;5095103;28;20031;-72
2021/10/07 03:09:40;;;;;;;8.35;1.80;;;14.80;99.90;;;;;;5095038;28;20074;-73
2021/10/07 03:12:07;;;;;;;7.47;2.38;;;14.80;99.90;;;;;;5094777;28;20059;-72
2021/10/07 03:14:34;;;;;;;5.28;1.58;;;14.80;99.90;;;;;;5094999;28;20063;-72
2021/10/07 03:17:00;;;;;;;9.25;1.92;;;14.90;99.90;;;;;;5094952;28;20027;-73
2021/10/07 03:19:26;;;;;;;8.10;2.10;;;14.90;99.90;;;;;;5095162;28;20028;-72
2021/10/07 03:21:52;;;;;;;11.15;2.25;;;14.90;99.90;;;;;;5094728;28;20024;-72
2021/10/07 03:24:17;;;;;;;7.80;2.15;;;14.80;99.90;;;;;;5094777;28;20031;-72
2021/10/07 03:26:43;;;;;;;5.72;1.80;;;14.90;99.90;;;;;;5095030;28;20028;-72
2021/10/07 03:29:09;;;;;;;4.57;2.00;;;14.90;99.90;;;;;;5094877;28;20024;-73
2021/10/07 03:31:34;;;;;;;8.00;1.50;;;14.90;99.90;;;;;;5094660;28;20388;-72
2021/10/07 03:34:00;;;;;;;6.28;1.55;;;14.80;99.90;;;;;;5094905;28;20024;-72
2021/10/07 03:36:26;;;;;;;5.00;1.80;;;14.80;99.90;;;;;;5094543;28;20431;-73
2021/10/07 03:38:52;;;;;;;8.20;1.60;;;14.70;99.90;;;;;;5094796;28;20027;-72
2021/10/07 03:41:18;;;;;;;3.95;1.67;;;14.80;99.90;;;;;;5094459;28;20028;-72
2021/10/07 03:43:44;;;;;;;3.97;1.80;;;14.90;99.90;;;;;;5094423;28;20026;-73
2021/10/07 03:46:10;;;;;;;5.55;2.00;;;14.90;99.90;;;;;;5094358;28;20507;-71
2021/10/07 03:48:35;;;;;;;5.47;2.00;;;14.70;99.90;;;;;;5093865;28;20031;-73
2021/10/07 03:51:02;;;;;;;6.45;1.75;;;14.80;99.90;;;;;;5094265;28;20099;-72
2021/10/07 03:53:27;;;;;;;3.78;1.70;;;14.70;99.90;;;;;;5094270;28;20020;-72
2021/10/07 03:55:54;;;;;;;6.90;2.15;;;14.60;99.90;;;;;;5094451;28;20498;-72
2021/10/07 03:58:20;;;;;;;8.70;2.47;;;14.60;99.90;;;;;;5094448;28;20034;-72
2021/10/07 04:00:45;;;;;;;21.08;3.78;;;14.50;99.90;;;;;;5094102;28;20028;-72
2021/10/07 04:03:11;;;;;;;8.57;2.45;;;14.50;99.90;;;;;;5094066;28;20020;-73
2021/10/07 04:05:37;;;;;;;6.00;2.22;;;14.50;99.90;;;;;;5093994;28;20472;-72
2021/10/07 04:08:04;;;;;;;6.97;2.10;;;14.50;99.90;;;;;;5093880;28;20031;-72
2021/10/07 04:10:31;;;;;;;9.18;2.85;;;14.50;99.90;;;;;;5093761;28;20837;-72
2021/10/07 04:12:56;;;;;;;6.93;2.28;;;14.60;99.90;;;;;;5093943;28;20017;-72
2021/10/07 04:15:22;;;;;;;5.45;1.90;;;14.70;99.90;;;;;;5093907;28;20012;-72
2021/10/07 04:17:48;;;;;;;9.98;2.10;;;14.60;99.90;;;;;;5094406;28;20349;-73
2021/10/07 04:20:14;;;;;;;9.07;2.58;;;14.70;99.90;;;;;;5093751;28;20531;-73
2021/10/07 04:22:39;;;;;;;5.43;2.20;;;14.60;99.90;;;;;;5093751;28;20042;-72
2021/10/07 04:25:06;;;;;;;8.77;2.33;;;14.50;99.90;;;;;;5093719;28;20055;-72
2021/10/07 04:27:32;;;;;;;8.45;2.65;;;14.50;99.90;;;;;;5093689;28;20020;-72
2021/10/07 04:30:02;;;;;;;7.13;2.33;;;14.40;99.90;;;;;;5093593;28;20540;-72
2021/10/07 04:32:28;;;;;;;;;;;14.40;99.90;;;;;;5094350;28;20020;-73
2021/10/07 04:34:53;;;;;;;;;;;14.50;99.90;;;;;;5094005;28;19910;-72
2021/10/07 04:37:19;;;;;;;;;;;14.40;99.90;;;;;;5094000;28;19904;-72
2021/10/07 04:39:44;;;;;;;;;;;14.50;99.90;;;;;;5094231;28;19904;-72
2021/10/07 04:42:10;;;;;;;;;;;14.50;99.90;;;;;;5094191;28;19904;-73
2021/10/07 04:44:35;;;;;;;;;;;14.60;99.90;;;;;;5093899;28;19961;-72
2021/10/07 04:47:01;;;;;;;;;;;14.60;99.90;;;;;;5093890;28;19904;-72
2021/10/07 04:49:26;;;;;;;;;;;14.70;99.90;;;;;;5094064;28;20018;-72
2021/10/07 04:51:52;;;;;;;;;;;14.80;99.90;;;;;;5094093;28;19908;-73
2021/10/07 04:54:18;;;;;;;;;;;14.80;99.90;;;;;;5093782;28;19904;-73
2021/10/07 04:56:43;;;;;;;;;;;14.80;99.90;;;;;;5093788;28;20006;-72
2021/10/07 04:59:09;;;;;;;;;;;14.80;99.90;;;;;;5094025;28;20379;-73
2021/10/07 05:01:34;;;;;;;;;;;14.90;99.90;;;;;;5095813;28;19939;-72
2021/10/07 05:04:02;;;;;;;;;;;14.90;99.90;;;;;;5097977;28;19953;-73
2021/10/07 05:06:29;;;;;;;;;;;14.80;99.90;;;;;;5097886;28;19904;-73
2021/10/07 05:08:55;;;;;;;;;;;14.80;99.90;;;;;;5098085;28;19908;-73
2021/10/07 05:11:20;;;;;;;;;;;14.80;99.90;;;;;;5097614;28;20037;-72
2021/10/07 05:13:46;;;;;;;;;;;14.80;99.90;;;;;;5098289;28;20345;-72
2021/10/07 05:16:11;;;;;;;;;;;14.80;99.90;;;;;;5097733;28;19904;-72
2021/10/07 05:18:37;;;;;;;;;;;14.70;99.90;;;;;;5097663;28;19904;-72
2021/10/07 05:21:02;;;;;;;;;;;14.70;99.90;;;;;;5097834;28;19915;-72
2021/10/07 05:23:29;;;;;;;;;;;14.80;99.90;;;;;;5097431;28;19912;-72
2021/10/07 05:25:55;;;;;;;;;;;14.80;99.90;;;;;;5098065;28;19911;-72
2021/10/07 05:28:20;;;;;;;;;;;14.80;99.90;;;;;;5097428;28;19908;-74
2021/10/07 05:30:46;;;;;;;;;;;14.80;99.90;;;;;;5097691;28;19904;-72
2021/10/07 05:33:11;;;;;;;;;;;14.80;99.90;;;;;;5097427;28;20318;-72
2021/10/07 05:35:37;;;;;;;;;;;14.90;99.90;;;;;;5097641;28;19904;-73
2021/10/07 05:38:02;;;;;;;;;;;15.00;99.90;;;;;;5097321;28;20383;-72
2021/10/07 05:40:28;;;;;;;;;;;15.10;99.90;;;;;;5097834;28;20007;-72
2021/10/07 05:42:53;;;;;;;;;;;15.00;99.90;;;;;;5097261;28;19908;-72
2021/10/07 05:45:19;;;;;;;;;;;15.00;99.90;;;;;;5097178;28;20384;-72
2021/10/07 05:47:44;;;;;;;;;;;15.00;99.90;;;;;;5097396;28;19947;-73
2021/10/07 05:50:11;;;;;;;;;;;15.00;99.90;;;;;;5097275;28;19915;-72
2021/10/07 05:52:37;;;;;;;;;;;15.00;99.90;;;;;;5097002;28;19904;-72
2021/10/07 05:55:03;;;;;;;;;;;15.00;99.90;;;;;;5097274;28;19911;-72
2021/10/07 05:57:29;;;;;;;;;;;14.90;99.90;;;;;;5096935;28;19937;-72
2021/10/07 05:59:54;;;;;;;;;;;14.90;99.90;;;;;;5096932;28;19904;-73
2021/10/07 06:02:20;;;;;;;;;;;15.00;99.90;;;;;;5096878;28;20385;-72
2021/10/07 06:04:45;;;;;;;;;;;15.00;99.90;;;;;;5096828;28;19910;-72
2021/10/07 06:07:11;;;;;;;;;;;15.00;99.90;;;;;;5096752;28;20364;-72
2021/10/07 06:09:36;;;;;;;;;;;15.00;99.90;;;;;;5096655;28;19915;-72
2021/10/07 06:12:02;;;;;;;;;;;15.10;99.90;;;;;;5096091;28;20285;-72
2021/10/07 06:14:27;;;;;;;;;;;15.10;99.90;;;;;;5096891;28;19966;-72
2021/10/07 06:16:53;;;;;;;;;;;15.10;99.90;;;;;;5096564;28;19908;-72
2021/10/07 06:19:22;;;;;;;;;;;15.10;99.90;;;;;;5097062;28;19991;-73
2021/10/07 06:21:48;;;;;;;;;;;15.10;99.90;;;;;;5096387;28;20415;-72
2021/10/07 06:24:14;;;;;;;;;;;15.10;99.90;;;;;;5096461;28;19904;-73
2021/10/07 06:26:40;;;;;;;;;;;15.10;99.90;;;;;;5096680;28;20405;-72
2021/10/07 06:29:05;;;;;;;;;;;15.10;99.90;;;;;;5096243;28;19908;-72
2021/10/07 06:31:31;;;;;;;;;;;15.10;99.90;;;;;;5096252;28;19911;-73
2021/10/07 06:33:56;;;;;;;;;;;15.00;99.90;;;;;;5096774;28;19956;-73
2021/10/07 06:36:22;;;;;;;;;;;15.00;99.90;;;;;;5096188;28;20010;-72
2021/10/07 06:38:47;;;;;;;;;;;15.10;99.90;;;;;;5096149;28;20390;-73
2021/10/07 06:41:14;;;;;;;;;;;15.10;99.90;;;;;;5096382;28;20318;-72
2021/10/07 06:43:40;;;;;;;;;;;15.20;99.90;;;;;;5096049;28;19904;-72
2021/10/07 06:46:05;;;;;;;;;;;15.20;99.90;;;;;;5096581;28;19904;-72
2021/10/07 06:48:33;;;;;;;;;;;15.30;99.90;;;;;;5096193;28;19911;-72
2021/10/07 06:50:59;;;;;;;;;;;15.20;99.90;;;;;;5096504;28;19911;-73
2021/10/07 06:53:25;;;;;;;;;;;15.20;99.90;;;;;;5095846;28;19904;-72
2021/10/07 06:55:50;;;;;;;;;;;15.20;99.90;;;;;;5095812;28;19956;-72
2021/10/07 06:58:18;;;;;;;;;;;15.20;99.90;;;;;;5095606;28;19904;-71
2021/10/07 07:00:44;;;;;;;;;;;15.30;99.90;;;;;;5087733;28;20435;-76
2021/10/07 07:03:10;;;;;;;;;;;15.30;99.90;;;;;;5092042;28;19908;-75
2021/10/07 07:05:36;;;;;;;;;;;15.30;99.90;;;;;;5091494;28;20066;-76
2021/10/07 07:08:01;;;;;;;;;;;15.30;99.90;;;;;;5075320;28;19905;-76
2021/10/07 07:10:27;;;;;;;;;;;15.30;99.90;;;;;;5077152;28;19908;-78
2021/10/07 07:12:52;;;;;;;;;;;15.30;99.90;;;;;;5075820;28;19909;-79
2021/10/07 07:15:18;;;;;;;;;;;15.30;99.90;;;;;;5077172;28;19911;-74
2021/10/07 07:17:44;;;;;;;;;;;15.30;99.90;;;;;;5095709;28;19904;-76
2021/10/07 07:20:10;;;;;;;;;;;15.30;99.90;;;;;;5092603;28;19908;-72
2021/10/07 07:22:36;;;;;;;;;;;15.40;99.90;;;;;;5078297;28;19908;-79
2021/10/07 07:25:02;;;;;;;;;;;15.40;99.90;;;;;;5075191;28;19904;-74
2021/10/07 07:27:28;;;;;;;;;;;15.50;99.90;;;;;;5075410;28;20396;-73
2021/10/07 07:29:55;;;;;;;;;;;15.50;99.90;;;;;;5075346;28;20021;-72
2021/10/07 07:32:21;;;;;;;;;;;15.50;99.90;;;;;;5076425;28;19909;-73
2021/10/07 07:34:47;;;;;;;;;;;15.50;99.90;;;;;;5092920;28;20395;-72
2021/10/07 07:37:12;;;;;;;;;;;15.50;99.90;;;;;;5095459;28;20376;-69
2021/10/07 07:39:38;;;;;;;;;;;15.60;99.90;;;;;;5078553;28;19915;-69
2021/10/07 07:42:03;;;;;;;;;;;15.60;99.90;;;;;;5075710;28;20375;-77
2021/10/07 07:44:29;;;;;;;;;;;15.70;99.90;;;;;;5074124;28;20299;-80
2021/10/07 07:46:55;;;;;;;;;;;15.80;99.90;;;;;;5072710;28;20329;-74
2021/10/07 07:49:21;;;;;;;;;;;15.80;99.90;;;;;;5074130;28;19915;-79
2021/10/07 07:51:46;;;;;;;;;;;15.80;99.90;;;;;;5076213;28;19991;-75
2021/10/07 07:54:12;;;;;;;;;;;15.90;99.90;;;;;;5074025;28;19991;-72
2021/10/07 07:56:37;;;;;;;;;;;15.90;99.90;;;;;;5082761;28;20371;-71
2021/10/07 07:59:03;;;;;;;;;;;16.10;99.90;;;;;;5078114;28;19912;-72
2021/10/07 08:01:31;;;;;;;;;;;16.20;99.90;;;;;;5075997;28;19908;-73
2021/10/07 08:03:56;;;;;;;;;;;16.20;99.90;;;;;;5074623;28;19911;-72
2021/10/07 08:06:22;;;;;;;;;;;16.20;99.90;;;;;;5079675;28;19908;-74
2021/10/07 08:08:47;;;;;;;;;;;16.30;99.90;;;;;;5094266;28;19908;-71
2021/10/07 08:11:13;;;;;;;;;;;16.20;99.90;;;;;;5089742;28;19920;-74
2021/10/07 08:13:38;;;;;;;;;;;16.20;99.90;;;;;;5082367;28;19961;-72
2021/10/07 08:16:04;;;;;;;;;;;16.30;99.90;;;;;;5077689;28;20394;-76
2021/10/07 08:18:29;;;;;;;;;;;16.40;99.90;;;;;;5074254;28;20398;-74
2021/10/07 08:20:55;;;;;;;;;;;16.40;99.90;;;;;;5080249;28;19904;-70
2021/10/07 08:23:28;;;;;;;;;;;16.40;99.90;;;;;;5093003;28;19916;-75
2021/10/07 08:25:54;;;;;;;;;;;16.50;99.90;;;;;;5077009;28;19912;-75
2021/10/07 08:28:19;;;;;;;;;;;16.60;99.90;;;;;;5081165;28;19919;-72
2021/10/07 08:30:45;;;;;;;;;;;16.60;99.90;;;;;;5089712;28;19931;-73
2021/10/07 08:33:10;;;;;;;;;;;16.60;99.90;;;;;;5074714;28;19908;-76
2021/10/07 08:35:36;;;;;;;;;;;16.70;99.90;;;;;;5074079;28;19940;-75
2021/10/07 08:38:01;;;;;;;;;;;17.00;99.90;;;;;;5074224;28;19908;-74
2021/10/07 08:40:27;;;;;;;;;;;17.00;99.90;;;;;;5073285;28;20276;-76
2021/10/07 08:42:52;;;;;;;;;;;17.00;99.90;;;;;;5086633;28;19998;-71
2021/10/07 08:45:18;;;;;;;;;;;17.00;99.90;;;;;;5093796;28;19908;-78
2021/10/07 08:47:45;;;;;;;;;;;17.00;99.90;;;;;;5083028;28;20333;-82
2021/10/07 08:50:11;;;;;;;;;;;17.10;99.90;;;;;;5076705;28;19912;-77
2021/10/07 08:52:37;;;;;;;;;;;17.10;99.90;;;;;;5088293;28;19925;-77
2021/10/07 08:55:04;;;;;;;;;;;17.10;99.90;;;;;;5079013;28;19952;-81
2021/10/07 08:57:29;;;;;;;;;;;17.20;99.90;;;;;;5074668;28;19954;-79
2021/10/07 08:59:55;;;;;;;;;;;17.20;99.90;;;;;;5089920;28;19991;-82
2021/10/07 09:02:24;;;;;;;;;;;17.10;99.90;;;;;;5073778;28;20265;-75
2021/10/07 09:04:49;;;;;;;;;;;17.20;99.90;;;;;;5073546;28;20253;-78
2021/10/07 09:07:15;;;;;;;;;;;17.10;99.90;;;;;;5080633;28;19914;-79
2021/10/07 09:09:41;;;;;;;;;;;17.20;99.90;;;;;;5092027;28;20003;-71
2021/10/07 09:12:08;;;;;;;;;;;17.20;99.90;;;;;;5074674;28;20368;-74
2021/10/07 09:14:37;;;;;;;;;;;17.20;99.90;;;;;;5090729;28;20356;-77
2021/10/07 09:17:04;;;;;;;;;;;17.20;99.90;;;;;;5090228;28;19930;-80
2021/10/07 09:19:32;;;;;;;;;;;17.30;99.90;;;;;;5081189;28;19912;-72
2021/10/07 09:22:00;;;;;;;;;;;17.40;99.90;;;;;;5074498;28;19954;-77
2021/10/07 09:24:25;;;;;;;;;;;17.40;99.90;;;;;;5073091;28;19908;-78
2021/10/07 09:26:51;;;;;;;;;;;17.40;99.90;;;;;;5074634;28;19904;-72
2021/10/07 09:29:17;;;;;;;;;;;17.50;99.90;;;;;;5081256;28;19916;-77
2021/10/07 09:31:42;;;;;;;;;;;17.60;99.90;;;;;;5075539;28;19908;-73
2021/10/07 09:34:08;;;;;;;;;;;17.60;99.90;;;;;;5080728;28;19914;-76
2021/10/07 09:36:34;;;;;;;;;;;17.60;99.90;;;;;;5096820;28;19904;-76
2021/10/07 09:39:01;;;;;;;;;;;17.70;99.90;;;;;;5090605;28;19908;-75
2021/10/07 09:41:29;;;;;;;;;;;17.70;99.90;;;;;;5072138;28;19905;-74
2021/10/07 09:43:59;;;;;;;;;;;17.80;99.90;;;;;;5071753;28;19935;-74
2021/10/07 09:46:43;;;;;;;;;;;17.80;99.90;;;;;;5073542;28;20288;-74
2021/10/07 09:49:31;;;;;;;;;;;17.90;99.90;;;;;;5075413;28;20333;-73
2021/10/07 09:51:57;;;;;;;;;;;17.90;99.90;;;;;;5077298;28;20374;-77
2021/10/07 09:54:26;;;;;;;;;;;17.90;99.90;;;;;;5094942;28;19916;-77
2021/10/07 09:56:56;;;;;;;;;;;18.00;99.90;;;;;;5094997;28;19962;-72
2021/10/07 09:59:22;;;;;;;;;;;18.20;99.90;;;;;;5095572;28;20379;-76
2021/10/07 10:01:47;;;;;;;;;;;18.20;99.90;;;;;;5096902;28;19908;-78
2021/10/07 10:04:13;;;;;;;;;;;18.10;99.90;;;;;;5096451;28;19987;-75
2021/10/07 10:06:41;;;;;;;;;;;18.10;99.90;;;;;;5086702;28;19916;-75
2021/10/07 10:09:07;;;;;;;;;;;18.20;99.90;;;;;;5077689;28;20287;-76
2021/10/07 10:11:33;;;;;;;;;;;18.10;99.90;;;;;;5076359;28;19928;-76
2021/10/07 10:13:58;;;;;;;;;;;18.10;99.90;;;;;;5077653;28;19904;-77
2021/10/07 10:16:24;;;;;;;;;;;18.20;99.90;;;;;;5082708;28;20396;-75
2021/10/07 10:18:55;;;;;;;;;;;18.20;99.90;;;;;;5096568;28;19904;-75
2021/10/07 10:21:21;;;;;;;;;;;18.20;99.90;;;;;;5089962;28;20399;-74
2021/10/07 10:23:47;;;;;;;;;;;18.30;99.90;;;;;;5076248;28;19904;-74
2021/10/07 10:26:13;;;;;;;;;;;18.20;99.90;;;;;;5077200;28;19935;-73
2021/10/07 10:28:42;;;;;;;;;;;18.10;99.90;;;;;;5076082;28;19908;-76
2021/10/07 10:31:09;;;;;;;;;;;18.10;99.90;;;;;;5079577;28;19995;-75
2021/10/07 10:33:36;;;;;;;;;;;18.00;99.90;;;;;;5095908;28;19908;-76
2021/10/07 10:36:02;;;;;;;;;;;18.00;99.90;;;;;;5094492;28;19917;-72
2021/10/07 10:38:28;;;;;;;;;;;18.00;99.90;;;;;;5096175;28;19904;-75
2021/10/07 10:40:54;;;;;;;;;;;18.10;99.90;;;;;;5093982;28;19911;-70
2021/10/07 10:43:23;;;;;;;;;;;18.10;99.90;;;;;;5079885;28;19908;-70
2021/10/07 10:46:07;;;;;;;;;;;18.10;99.90;;;;;;5076368;28;20281;-69
2021/10/07 10:48:46;;;;;;;;;;;18.10;99.90;;;;;;5076035;28;19916;-69
2021/10/07 10:51:12;;;;;;;;;;;18.10;99.90;;;;;;5075739;28;20369;-70
2021/10/07 10:53:48;;;;;;;;;;;18.10;99.90;;;;;;5075927;28;20381;-70
2021/10/07 10:56:14;;;;;;;;;;;18.10;99.90;;;;;;5075604;28;19908;-69
2021/10/07 10:58:40;;;;;;;;;;;18.10;99.90;;;;;;5074503;28;19954;-69
2021/10/07 11:01:12;;;;;;;;;;;18.10;99.90;;;;;;5075534;28;19991;-69
2021/10/07 11:03:39;;;;;;;;;;;18.10;99.90;;;;;;5075751;28;19904;-70
2021/10/07 11:06:09;;;;;;;;;;;18.20;99.90;;;;;;5075408;28;19904;-71
2021/10/07 11:08:40;;;;;;;;;;;18.20;99.90;;;;;;5073801;28;20299;-69
2021/10/07 11:11:07;;;;;;;;;;;18.30;99.90;;;;;;5075307;28;19991;-71
2021/10/07 11:13:34;;;;;;;;;;;18.30;99.90;;;;;;5075846;28;19983;-70
2021/10/07 11:16:01;;;;;;;;;;;18.40;99.90;;;;;;5075232;28;19915;-70
2021/10/07 11:18:33;;;;;;;;;;;18.50;99.90;;;;;;5075191;28;19935;-69
2021/10/07 11:21:12;;;;;;;;;;;18.60;99.90;;;;;;5073701;28;19995;-70
2021/10/07 11:23:39;;;;;;;;;;;18.60;99.90;;;;;;5075086;28;19920;-70
2021/10/07 11:26:05;;;;;;;;;;;18.80;99.90;;;;;;5075001;28;19908;-70
2021/10/07 11:28:31;;;;;;;;;;;18.80;99.90;;;;;;5075488;28;20296;-70
2021/10/07 11:30:58;;;;;;;;;;;18.80;99.90;;;;;;5074895;28;19911;-71
2021/10/07 11:33:25;;;;;;;;;;;18.90;99.90;;;;;;5075157;28;19908;-69
2021/10/07 11:36:01;;;;;;;;;;;18.90;99.90;;;;;;5074791;28;20276;-69
2021/10/07 11:38:27;;;;;;;;;;;18.90;99.90;;;;;;5074771;28;19991;-71
2021/10/07 11:40:53;;;;;;;;;;;18.80;99.90;;;;;;5074707;28;19943;-69
2021/10/07 11:43:20;;;;;;;;;;;18.80;99.90;;;;;;5074686;28;19904;-69
2021/10/07 11:45:47;;;;;;;;;;;18.80;99.90;;;;;;5074629;28;19904;-70
2021/10/07 11:48:13;;;;;;;;;;;18.70;99.90;;;;;;5074541;28;20287;-69
2021/10/07 11:50:43;;;;;;;;;;;18.70;99.90;;;;;;5074502;28;19911;-69
2021/10/07 11:53:10;;;;;;;;;;;18.80;99.90;;;;;;5074838;28;19911;-69
2021/10/07 11:55:38;;;;;;;;;;;18.70;99.90;;;;;;5074794;28;19905;-71
2021/10/07 11:58:03;;;;;;;;;;;18.70;99.90;;;;;;5074405;28;19930;-70
2021/10/07 12:00:37;;;;;;;;;;;18.60;99.90;;;;;;5074360;28;20408;-70
2021/10/07 12:03:07;;;;;;;;;;;18.50;99.90;;;;;;5074297;28;20360;-71
2021/10/07 12:05:32;;;;;;;;;;;18.60;99.90;;;;;;5074258;28;19973;-69
2021/10/07 12:08:05;;;;;;;;;;;18.60;99.90;;;;;;5074238;28;20352;-69
2021/10/07 12:10:41;;;;;;;;;;;18.60;99.90;;;;;;5073671;28;19924;-69
2021/10/07 12:13:08;;;;;;;;;;;18.70;99.90;;;;;;5074145;28;20279;-68
2021/10/07 12:15:36;;;;;;;;;;;18.70;99.90;;;;;;5074354;28;19908;-76
2021/10/07 12:18:01;;;;;;;;;;;18.70;99.90;;;;;;5074022;28;19905;-76
2021/10/07 12:20:27;;;;;;;;;;;18.70;99.90;;;;;;5074244;28;19928;-72
2021/10/07 12:22:58;;;;;;;;;;;18.70;99.90;;;;;;5074272;28;19912;-75
2021/10/07 12:25:24;;;;;;;;;;;18.70;99.90;;;;;;5074525;28;19942;-71
2021/10/07 12:27:49;;;;;;;;;;;18.70;99.90;;;;;;5074204;28;19911;-70
2021/10/07 12:30:15;;;;;;;;;;;18.70;99.90;;;;;;5073835;28;19908;-78
2021/10/07 12:32:41;;;;;;;;;;;18.70;99.90;;;;;;5074122;28;19904;-80
2021/10/07 12:35:06;;;;;;;;;;;18.70;99.90;;;;;;5086278;28;20379;-71
2021/10/07 12:37:33;;;;;;;;;;;18.70;99.90;;;;;;5086038;28;19912;-72
2021/10/07 12:39:59;;;;;;;;;;;18.70;99.90;;;;;;5080217;28;19956;-73
2021/10/07 12:42:25;;;;;;;;;;;18.70;99.90;;;;;;5094322;28;20382;-71
2021/10/07 12:44:51;;;;;;;;;;;18.70;99.90;;;;;;5094211;28;20389;-72
2021/10/07 12:47:21;;;;;;;;;;;18.60;99.90;;;;;;5094032;28;20007;-75
2021/10/07 12:49:48;;;;;;;;;;;18.60;99.90;;;;;;5094434;28;19908;-76
2021/10/07 12:52:20;;;;;;;;;;;18.50;99.90;;;;;;5075573;28;19969;-76
2021/10/07 12:54:55;;;;;;;;;;;18.50;99.90;;;;;;5091311;28;19915;-81
2021/10/07 12:57:33;;;;;;;;;;;18.60;99.90;;;;;;5075350;28;19919;-80
2021/10/07 12:59:58;;;;;;;;;;;18.70;99.90;;;;;;5074167;28;19995;-73
2021/10/07 13:02:31;;;;;;;;;;;18.60;99.90;;;;;;5073560;28;20352;-72
2021/10/07 13:04:56;;;;;;;;;;;18.70;99.90;;;;;;5072738;28;19912;-68
2021/10/07 13:07:25;;;;;;;;;;;18.70;99.90;;;;;;5084353;28;20383;-74
2021/10/07 13:09:51;;;;;;;;;;;18.70;99.90;;;;;;5081867;28;19915;-76
2021/10/07 13:12:17;;;;;;;;;;;18.60;99.90;;;;;;5092479;28;19965;-77
2021/10/07 13:14:52;;;;;;;;;;;18.60;99.90;;;;;;5093691;28;19908;-74
2021/10/07 13:17:18;;;;;;;;;;;18.70;99.90;;;;;;5093821;28;19904;-70
2021/10/07 13:19:43;;;;;;;;;;;18.70;99.90;;;;;;5093595;28;20025;-80
2021/10/07 13:22:09;;;;;;;;;;;18.70;99.90;;;;;;5088146;28;19909;-76
2021/10/07 13:24:34;;;;;;;;;;;18.70;99.90;;;;;;5077605;28;20279;-77
2021/10/07 13:27:02;;;;;;;;;;;18.70;99.90;;;;;;5077064;28;19916;-74
2021/10/07 13:29:28;;;;;;;;;;;18.70;99.90;;;;;;5077707;28;19912;-70
2021/10/07 13:31:54;;;;;;;;;;;18.80;99.90;;;;;;5077312;28;19915;-80
2021/10/07 13:34:19;;;;;;;;;;;18.80;99.90;;;;;;5077721;28;19904;-70
2021/10/07 13:36:45;;;;;;;;;;;18.90;99.90;;;;;;5083784;28;19908;-70
2021/10/07 13:39:10;;;;;;;;;;;19.00;99.90;;;;;;5089224;28;19947;-70
2021/10/07 13:41:36;;;;;;;;;;;19.00;99.90;;;;;;5078141;28;20437;-70
2021/10/07 13:44:02;;;;;;;;;;;19.00;99.90;;;;;;5078081;28;19932;-69
2021/10/07 13:46:27;;;;;;;;;;;19.10;99.90;;;;;;5077532;28;19908;-70
2021/10/07 13:48:53;;;;;;;;;;;19.20;99.90;;;;;;5084814;28;19919;-70